Time,TemperatureF,DewpointF,PressureIn,WindDirection,WindDirectionDegrees,WindSpeedMPH,WindSpeedGustMPH,Humidity,HourlyPrecipIn,Conditions,Clouds,dailyrainin,SoftwareType,DateUTC
2013-10-08 00:11:00,55.1,47.0,30.15,NNW,346,0.0,8.0,75,0.00,,,0.24,weatherlink.com 1.10,2013-10-08 04:11:00,
2013-10-08 00:26:00,54.9,47.0,30.15,NNE,26,3.0,7.0,75,0.00,,,0.00,weatherlink.com 1.10,2013-10-08 04:26:00,
2013-10-08 00:41:00,54.7,47.0,30.16,NNE,13,1.0,7.0,75,0.00,,,0.00,weatherlink.com 1.10,2013-10-08 04:41:00,
2013-10-08 00:56:00,54.4,47.0,30.16,North,6,1.0,6.0,76,0.00,,,0.00,weatherlink.com 1.10,2013-10-08 04:56:00,
2013-10-08 01:11:00,53.9,47.0,30.16,North,2,2.0,6.0,76,0.00,,,0.00,weatherlink.com 1.10,2013-10-08 05:11:00,
2013-10-08 01:26:00,53.4,47.0,30.16,ENE,59,1.0,4.0,78,0.00,,,0.00,weatherlink.com 1.10,2013-10-08 05:26:00,
2013-10-08 01:41:00,53.2,47.0,30.16,ENE,63,4.0,6.0,79,0.00,,,0.00,weatherlink.com 1.10,2013-10-08 05:41:00,
2013-10-08 01:56:00,52.8,46.0,30.16,ENE,59,2.0,4.0,79,0.00,,,0.00,weatherlink.com 1.10,2013-10-08 05:56:00,
2013-10-08 02:11:00,52.3,46.0,30.16,NNE,19,1.0,6.0,80,0.00,,,0.00,weatherlink.com 1.10,2013-10-08 06:11:00,
2013-10-08 02:26:00,52.4,46.0,30.17,NNE,32,4.0,7.0,80,0.00,,,0.00,weatherlink.com 1.10,2013-10-08 06:26:00,
2013-10-08 02:41:00,52.4,46.0,30.16,NNW,335,4.0,7.0,80,0.00,,,0.00,weatherlink.com 1.10,2013-10-08 06:41:00,
2013-10-08 02:56:00,52.4,46.0,30.16,North,359,4.0,8.0,80,0.00,,,0.00,weatherlink.com 1.10,2013-10-08 06:56:00,
2013-10-08 03:11:00,52.4,46.0,30.16,NNE,14,3.0,8.0,79,0.00,,,0.00,weatherlink.com 1.10,2013-10-08 07:11:00,
2013-10-08 03:26:00,52.5,46.0,30.17,NNE,21,3.0,8.0,79,0.00,,,0.00,weatherlink.com 1.10,2013-10-08 07:26:00,
2013-10-08 03:41:00,52.4,46.0,30.17,NE,49,2.0,8.0,79,0.00,,,0.00,weatherlink.com 1.10,2013-10-08 07:41:00,
2013-10-08 03:56:00,52.8,46.0,30.16,ENE,70,7.0,9.0,77,0.00,,,0.00,weatherlink.com 1.10,2013-10-08 07:56:00,
2013-10-08 04:11:00,52.9,46.0,30.17,NE,51,6.0,11.0,77,0.00,,,0.00,weatherlink.com 1.10,2013-10-08 08:11:00,
2013-10-08 04:26:00,52.5,46.0,30.17,NNE,31,4.0,11.0,78,0.00,,,0.00,weatherlink.com 1.10,2013-10-08 08:26:00,
2013-10-08 04:42:00,53.0,46.0,30.16,NE,38,5.0,13.0,76,0.00,,,0.00,weatherlink.com 1.10,2013-10-08 08:42:00,
2013-10-08 04:56:00,53.0,46.0,30.17,NE,49,6.0,15.0,76,0.00,,,0.00,weatherlink.com 1.10,2013-10-08 08:56:00,
2013-10-08 05:11:00,52.5,45.0,30.17,NE,52,4.0,13.0,77,0.00,,,0.00,weatherlink.com 1.10,2013-10-08 09:11:00,
2013-10-08 05:26:00,52.0,45.0,30.18,NE,44,7.0,10.0,78,0.00,,,0.00,weatherlink.com 1.10,2013-10-08 09:26:00,
2013-10-08 05:41:00,51.8,46.0,30.18,East,84,5.0,11.0,79,0.00,,,0.00,weatherlink.com 1.10,2013-10-08 09:41:00,
2013-10-08 05:57:00,51.4,45.0,30.19,NE,56,7.0,13.0,79,0.00,,,0.00,weatherlink.com 1.10,2013-10-08 09:57:00,
2013-10-08 06:12:00,51.5,45.0,30.19,NE,51,5.0,11.0,79,0.00,,,0.00,weatherlink.com 1.10,2013-10-08 10:12:00,
2013-10-08 06:27:00,51.4,45.0,30.19,NNE,32,4.0,12.0,79,0.00,,,0.00,weatherlink.com 1.10,2013-10-08 10:27:00,
2013-10-08 06:42:00,51.3,45.0,30.19,North,356,2.0,15.0,79,0.00,,,0.00,weatherlink.com 1.10,2013-10-08 10:42:00,
2013-10-08 06:57:00,51.0,45.0,30.19,ENE,61,2.0,11.0,79,0.00,,,0.00,weatherlink.com 1.10,2013-10-08 10:57:00,
2013-10-08 07:12:00,51.2,45.0,30.20,NNE,30,6.0,11.0,78,0.00,,,0.00,weatherlink.com 1.10,2013-10-08 11:12:00,
2013-10-08 07:27:00,51.2,45.0,30.20,ENE,62,6.0,11.0,78,0.00,,,0.00,weatherlink.com 1.10,2013-10-08 11:27:00,
2013-10-08 07:42:00,50.9,44.0,30.20,NE,38,5.0,13.0,78,0.00,,,0.00,weatherlink.com 1.10,2013-10-08 11:42:00,
2013-10-08 07:57:00,50.9,44.0,30.21,NNE,32,7.0,12.0,78,0.00,,,0.00,weatherlink.com 1.10,2013-10-08 11:57:00,
2013-10-08 08:12:00,51.6,44.0,30.21,NE,53,9.0,15.0,76,0.00,,,0.00,weatherlink.com 1.10,2013-10-08 12:12:00,
2013-10-08 08:27:00,52.1,45.0,30.22,ENE,72,3.0,13.0,76,0.00,,,0.00,weatherlink.com 1.10,2013-10-08 12:27:00,
2013-10-08 08:42:00,53.1,45.0,30.22,NE,37,3.0,10.0,74,0.00,,,0.00,weatherlink.com 1.10,2013-10-08 12:42:00,
2013-10-08 08:57:00,53.6,46.0,30.22,ENE,64,2.0,11.0,74,0.00,,,0.00,weatherlink.com 1.10,2013-10-08 12:57:00,
2013-10-08 09:12:00,54.5,46.0,30.22,NE,34,2.0,10.0,73,0.00,,,0.00,weatherlink.com 1.10,2013-10-08 13:12:00,
2013-10-08 09:27:00,55.5,46.0,30.23,ENE,59,3.0,15.0,71,0.00,,,0.00,weatherlink.com 1.10,2013-10-08 13:27:00,
2013-10-08 09:42:00,56.6,46.0,30.23,ENE,63,2.0,13.0,68,0.00,,,0.00,weatherlink.com 1.10,2013-10-08 13:42:00,
2013-10-08 09:57:00,57.4,46.0,30.23,ESE,105,7.0,11.0,67,0.00,,,0.00,weatherlink.com 1.10,2013-10-08 13:57:00,
2013-10-08 10:12:00,59.0,47.0,30.22,ENE,74,3.0,8.0,65,0.00,,,0.00,weatherlink.com 1.10,2013-10-08 14:12:00,
2013-10-08 10:27:00,59.3,47.0,30.22,ENE,59,8.0,10.0,64,0.00,,,0.00,weatherlink.com 1.10,2013-10-08 14:27:00,
2013-10-08 10:42:00,60.1,47.0,30.22,ENE,63,8.0,11.0,63,0.00,,,0.00,weatherlink.com 1.10,2013-10-08 14:42:00,
2013-10-08 10:57:00,62.0,47.0,30.22,East,94,3.0,18.0,58,0.00,,,0.00,weatherlink.com 1.10,2013-10-08 14:57:00,
2013-10-08 11:12:00,61.9,45.0,30.21,East,85,6.0,18.0,55,0.00,,,0.00,weatherlink.com 1.10,2013-10-08 15:12:00,
2013-10-08 11:27:00,63.6,46.0,30.21,ENE,63,6.0,11.0,53,0.00,,,0.00,weatherlink.com 1.10,2013-10-08 15:27:00,
2013-10-08 11:42:00,63.7,47.0,30.21,NNE,31,3.0,9.0,55,0.00,,,0.00,weatherlink.com 1.10,2013-10-08 15:42:00,
2013-10-08 11:57:00,64.6,47.0,30.21,NE,42,2.0,6.0,54,0.00,,,0.00,weatherlink.com 1.10,2013-10-08 15:57:00,
2013-10-08 12:12:00,64.4,47.0,30.21,ESE,103,1.0,9.0,54,0.00,,,0.00,weatherlink.com 1.10,2013-10-08 16:12:00,
2013-10-08 12:27:00,66.2,48.0,30.21,NE,39,6.0,8.0,52,0.00,,,0.00,weatherlink.com 1.10,2013-10-08 16:27:00,
2013-10-08 12:42:00,66.3,47.0,30.21,NE,51,1.0,9.0,51,0.00,,,0.00,weatherlink.com 1.10,2013-10-08 16:42:00,
2013-10-08 12:58:00,67.6,49.0,30.21,NE,44,0.0,5.0,51,0.00,,,0.00,weatherlink.com 1.10,2013-10-08 16:58:00,
2013-10-08 13:13:00,67.1,48.0,30.20,East,90,0.0,9.0,50,0.00,,,0.00,weatherlink.com 1.10,2013-10-08 17:13:00,
2013-10-08 13:28:00,67.2,47.0,30.20,NE,43,2.0,7.0,49,0.00,,,0.00,weatherlink.com 1.10,2013-10-08 17:28:00,
2013-10-08 13:43:00,69.2,49.0,30.20,WSW,241,0.0,8.0,49,0.00,,,0.00,weatherlink.com 1.10,2013-10-08 17:43:00,
2013-10-08 13:58:00,69.6,49.0,30.19,ENE,77,3.0,5.0,49,0.00,,,0.00,weatherlink.com 1.10,2013-10-08 17:58:00,
2013-10-08 14:13:00,70.4,49.0,30.18,SE,128,2.0,11.0,47,0.00,,,0.00,weatherlink.com 1.10,2013-10-08 18:13:00,
2013-10-08 14:28:00,71.2,50.0,30.18,East,80,9.0,9.0,47,0.00,,,0.00,weatherlink.com 1.10,2013-10-08 18:28:00,
2013-10-08 14:43:00,70.3,51.0,30.18,ENE,76,1.0,11.0,50,0.00,,,0.00,weatherlink.com 1.10,2013-10-08 18:43:00,
2013-10-08 14:58:00,71.0,50.0,30.17,SE,146,3.0,10.0,48,0.00,,,0.00,weatherlink.com 1.10,2013-10-08 18:58:00,
2013-10-08 15:13:00,70.4,50.0,30.17,East,90,3.0,9.0,49,0.00,,,0.00,weatherlink.com 1.10,2013-10-08 19:13:00,
2013-10-08 15:28:00,71.1,50.0,30.17,ENE,72,2.0,10.0,48,0.00,,,0.00,weatherlink.com 1.10,2013-10-08 19:28:00,
2013-10-08 15:43:00,71.2,51.0,30.17,ENE,66,6.0,7.0,49,0.00,,,0.00,weatherlink.com 1.10,2013-10-08 19:43:00,
2013-10-08 15:58:00,71.6,51.0,30.17,NE,54,0.0,8.0,48,0.00,,,0.00,weatherlink.com 1.10,2013-10-08 19:58:00,
2013-10-08 16:13:00,72.4,52.0,30.16,ESE,110,3.0,7.0,49,0.00,,,0.00,weatherlink.com 1.10,2013-10-08 20:13:00,
2013-10-08 16:28:00,72.0,52.0,30.17,ENE,77,1.0,8.0,49,0.00,,,0.00,weatherlink.com 1.10,2013-10-08 20:28:00,
2013-10-08 16:43:00,72.4,52.0,30.17,East,96,0.0,7.0,49,0.00,,,0.00,weatherlink.com 1.10,2013-10-08 20:43:00,
2013-10-08 16:58:00,72.4,51.0,30.17,NE,41,3.0,5.0,48,0.00,,,0.00,weatherlink.com 1.10,2013-10-08 20:58:00,
2013-10-08 17:13:00,72.1,51.0,30.17,East,89,2.0,10.0,48,0.00,,,0.00,weatherlink.com 1.10,2013-10-08 21:13:00,
2013-10-08 17:28:00,72.7,52.0,30.17,East,83,3.0,6.0,49,0.00,,,0.00,weatherlink.com 1.10,2013-10-08 21:28:00,
2013-10-08 17:43:00,71.9,52.0,30.17,ESE,102,3.0,7.0,49,0.00,,,0.00,weatherlink.com 1.10,2013-10-08 21:43:00,
2013-10-08 17:58:00,71.1,51.0,30.17,NNE,18,3.0,7.0,49,0.00,,,0.00,weatherlink.com 1.10,2013-10-08 21:58:00,
2013-10-08 18:13:00,70.7,50.0,30.18,NE,53,4.0,7.0,49,0.00,,,0.00,weatherlink.com 1.10,2013-10-08 22:13:00,
2013-10-08 18:28:00,70.9,51.0,30.18,ENE,77,3.0,7.0,49,0.00,,,0.00,weatherlink.com 1.10,2013-10-08 22:28:00,
2013-10-08 18:43:00,70.0,51.0,30.18,NE,52,3.0,7.0,51,0.00,,,0.00,weatherlink.com 1.10,2013-10-08 22:43:00,
2013-10-08 18:58:00,69.4,50.0,30.18,NE,44,6.0,8.0,51,0.00,,,0.00,weatherlink.com 1.10,2013-10-08 22:58:00,
2013-10-08 19:13:00,68.7,50.0,30.18,NE,42,3.0,8.0,52,0.00,,,0.00,weatherlink.com 1.10,2013-10-08 23:13:00,
2013-10-08 19:28:00,67.9,51.0,30.18,NNE,28,1.0,3.0,55,0.00,,,0.00,weatherlink.com 1.10,2013-10-08 23:28:00,
2013-10-08 19:43:00,67.6,51.0,30.19,North,6,2.0,4.0,55,0.00,,,0.00,weatherlink.com 1.10,2013-10-08 23:43:00,
2013-10-08 19:58:00,66.9,51.0,30.19,NE,43,3.0,3.0,56,0.00,,,0.00,weatherlink.com 1.10,2013-10-08 23:58:00,
2013-10-08 20:13:00,66.3,51.0,30.19,NNE,15,1.0,3.0,58,0.00,,,0.00,weatherlink.com 1.10,2013-10-09 00:13:00,
2013-10-08 20:28:00,66.0,51.0,30.19,NNE,30,3.0,4.0,58,0.00,,,0.00,weatherlink.com 1.10,2013-10-09 00:28:00,
2013-10-08 20:43:00,65.3,51.0,30.19,NNE,26,2.0,4.0,61,0.00,,,0.00,weatherlink.com 1.10,2013-10-09 00:43:00,
2013-10-08 20:58:00,65.0,51.0,30.20,NNE,30,2.0,5.0,60,0.00,,,0.00,weatherlink.com 1.10,2013-10-09 00:58:00,
2013-10-08 21:13:00,64.6,51.0,30.20,ENE,72,6.0,8.0,61,0.00,,,0.00,weatherlink.com 1.10,2013-10-09 01:13:00,
2013-10-08 21:28:00,64.8,50.0,30.20,NNW,342,3.0,8.0,59,0.00,,,0.00,weatherlink.com 1.10,2013-10-09 01:28:00,
2013-10-08 21:43:00,64.8,49.0,30.21,NNE,18,4.0,8.0,58,0.00,,,0.00,weatherlink.com 1.10,2013-10-09 01:43:00,
2013-10-08 21:58:00,64.4,50.0,30.21,NE,49,2.0,5.0,59,0.00,,,0.00,weatherlink.com 1.10,2013-10-09 01:58:00,
2013-10-08 22:13:00,63.9,50.0,30.21,NE,55,4.0,4.0,60,0.00,,,0.00,weatherlink.com 1.10,2013-10-09 02:13:00,
2013-10-08 22:28:00,64.3,49.0,30.21,NNE,30,6.0,9.0,58,0.00,,,0.00,weatherlink.com 1.10,2013-10-09 02:28:00,
2013-10-08 22:43:00,64.4,49.0,30.21,ENE,64,7.0,12.0,57,0.00,,,0.00,weatherlink.com 1.10,2013-10-09 02:43:00,
2013-10-08 22:58:00,64.2,48.0,30.21,ENE,68,9.0,13.0,57,0.00,,,0.00,weatherlink.com 1.10,2013-10-09 02:58:00,
2013-10-08 23:13:00,63.5,49.0,30.21,NNW,345,2.0,12.0,59,0.00,,,0.00,weatherlink.com 1.10,2013-10-09 03:13:00,
2013-10-08 23:28:00,62.5,49.0,30.21,NE,44,4.0,9.0,62,0.00,,,0.00,weatherlink.com 1.10,2013-10-09 03:28:00,
2013-10-08 23:43:00,62.3,49.0,30.21,NNE,31,4.0,6.0,62,0.00,,,0.00,weatherlink.com 1.10,2013-10-09 03:43:00,
2013-10-08 23:58:00,62.4,49.0,30.21,NE,38,5.0,8.0,62,0.00,,,0.00,weatherlink.com 1.10,2013-10-09 03:58:00,